Time;durP1;ratioP1;P1;durP2;ratioP2;P2;SDS_P1;SDS_P2;PMS_P1;PMS_P2;Temp;Humidity;BMP_temperature;BMP_pressure;BME280_temperature;BME280_humidity;BME280_pressure;Samples;Min_cycle;Max_cycle;Signal;HPM_P1;HPM_P2
2020/12/16 00:02:20;;;;;;;30.77;23.70;;;;;;;8.14;69.07;101015.91;4975527;28;96599;-68
2020/12/16 00:04:47;;;;;;;26.13;21.88;;;;;;;8.09;69.54;101016.94;4955779;28;100180;-68
2020/12/16 00:07:13;;;;;;;28.10;23.23;;;;;;;8.09;69.91;101016.94;4972692;28;98463;-68
2020/12/16 00:09:39;;;;;;;27.83;21.77;;;;;;;8.14;69.34;101007.28;4974886;28;96660;-69
2020/12/16 00:12:06;;;;;;;33.53;23.70;;;;;;;8.18;69.77;101011.50;4974718;28;97006;-68
2020/12/16 00:14:33;;;;;;;30.88;25.30;;;;;;;8.21;69.24;101016.63;4974366;28;98445;-68
2020/12/16 00:16:59;;;;;;;32.70;24.95;;;;;;;8.23;69.21;101016.56;4974482;28;98445;-68
2020/12/16 00:19:25;;;;;;;30.13;25.35;;;;;;;8.26;68.94;101006.97;4975255;28;96839;-69
2020/12/16 00:21:52;;;;;;;29.27;24.33;;;;;;;8.34;68.36;101011.91;4969322;28;96628;-68
2020/12/16 00:24:18;;;;;;;33.90;24.30;;;;;;;8.39;67.54;101010.09;4962708;28;98599;-68
2020/12/16 00:26:45;;;;;;;28.58;23.20;;;;;;;8.41;67.56;101013.47;4965754;28;98592;-69
2020/12/16 00:29:11;;;;;;;26.45;23.48;;;;;;;8.42;68.11;101014.34;4963324;28;98032;-69
2020/12/16 00:31:38;;;;;;;33.53;24.05;;;;;;;8.34;68.32;101017.97;4961644;28;97355;-69
2020/12/16 00:34:08;;;;;;;29.33;23.50;;;;;;;8.35;68.43;101024.84;4963820;28;98424;-69
2020/12/16 00:36:36;;;;;;;28.35;24.38;;;;;;;8.33;68.78;101015.41;4961149;28;99269;-69
2020/12/16 00:39:03;;;;;;;27.92;23.67;;;;;;;8.28;69.54;101017.28;4964479;28;99921;-69
2020/12/16 00:41:30;;;;;;;31.08;23.80;;;;;;;8.27;69.69;101016.44;4962050;28;97452;-68
2020/12/16 00:43:56;;;;;;;27.88;23.85;;;;;;;8.32;69.52;101019.78;4964597;28;98510;-69
2020/12/16 00:46:23;;;;;;;32.85;26.33;;;;;;;8.36;69.60;101026.63;4961852;28;98801;-69
2020/12/16 00:48:49;;;;;;;30.63;23.98;;;;;;;8.37;69.22;101017.94;4946512;28;97014;-69
2020/12/16 00:51:16;;;;;;;26.38;22.60;;;;;;;8.33;69.41;101016.28;4955931;28;98066;-69
2020/12/16 00:53:43;;;;;;;23.88;21.08;;;;;;;8.40;67.86;101015.22;4949465;28;100062;-69
2020/12/16 00:56:10;;;;;;;25.05;22.17;;;;;;;8.49;67.47;101018.47;4964451;28;98481;-68
2020/12/16 00:58:37;;;;;;;28.48;23.60;;;;;;;8.46;68.32;101026.34;4952366;28;99449;-68
2020/12/16 01:01:06;;;;;;;24.65;21.90;;;;;;;8.44;68.94;101029.00;4962858;28;96732;-68
2020/12/16 01:03:34;;;;;;;25.63;20.95;;;;;;;8.47;68.21;101023.72;4949508;28;98603;-69
2020/12/16 01:06:00;;;;;;;25.75;21.58;;;;;;;8.36;68.43;101031.81;4950621;28;100128;-68
2020/12/16 01:08:28;;;;;;;26.63;21.42;;;;;;;8.42;68.24;101032.53;4950833;28;98217;-68
2020/12/16 01:10:56;;;;;;;24.50;21.13;;;;;;;8.50;67.59;101038.34;4941171;28;100458;-68
2020/12/16 01:13:24;;;;;;;24.75;20.63;;;;;;;8.54;67.14;101051.22;4942715;28;99937;-68
2020/12/16 01:15:51;;;;;;;23.27;19.45;;;;;;;8.58;67.46;101052.00;4963036;28;99853;-68
2020/12/16 01:18:17;;;;;;;23.63;20.75;;;;;;;8.59;66.94;101049.34;4940731;28;97340;-68
2020/12/16 01:20:47;;;;;;;21.88;18.25;;;;;;;8.63;67.16;101050.09;4962023;28;96847;-68
2020/12/16 01:23:32;;;;;;;22.73;18.88;;;;;;;8.65;66.82;101045.72;4962894;28;99652;-68
2020/12/16 01:25:59;;;;;;;21.27;19.00;;;;;;;8.66;66.73;101052.59;4960409;28;98834;-68
2020/12/16 01:28:29;;;;;;;22.67;20.30;;;;;;;8.64;67.16;101057.84;4931857;28;97418;-64
2020/12/16 01:30:59;;;;;;;22.05;19.02;;;;;;;8.60;67.51;101055.38;4945309;28;100378;-67
2020/12/16 01:33:26;;;;;;;23.20;20.27;;;;;;;8.63;67.78;101058.75;4960618;28;100212;-67
2020/12/16 01:36:06;;;;;;;20.27;17.17;;;;;;;8.65;67.46;101048.31;4947289;28;100545;-67
2020/12/16 01:38:34;;;;;;;21.35;18.75;;;;;;;8.65;67.15;101054.34;4941215;28;98162;-67
2020/12/16 01:41:06;;;;;;;17.55;15.68;;;;;;;8.63;67.61;101063.09;4965615;28;98091;-67
2020/12/16 01:43:43;;;;;;;19.55;15.75;;;;;;;8.63;67.13;101065.72;4935922;28;100612;-68
2020/12/16 01:46:14;;;;;;;19.35;16.08;;;;;;;8.58;67.77;101057.19;4946264;28;99894;-68
2020/12/16 01:48:41;;;;;;;17.65;15.65;;;;;;;8.59;67.24;101053.69;4941105;28;96947;-67
2020/12/16 01:51:12;;;;;;;18.60;16.10;;;;;;;8.68;66.72;101047.34;4946249;28;96964;-67
2020/12/16 01:53:38;;;;;;;19.75;17.33;;;;;;;8.65;66.33;101048.31;4928792;28;99935;-68
2020/12/16 01:56:05;;;;;;;17.75;15.93;;;;;;;8.66;66.18;101044.81;4944648;28;100428;-67
2020/12/16 01:58:43;;;;;;;18.73;16.00;;;;;;;8.71;65.73;101053.31;4925316;28;96846;-69
2020/12/16 02:01:14;;;;;;;21.75;15.90;;;;;;;8.62;66.12;101057.03;4932117;28;97010;-69
2020/12/16 02:03:40;;;;;;;19.05;15.40;;;;;;;8.67;66.43;101072.50;4947324;28;99521;-69
2020/12/16 02:06:13;;;;;;;18.92;16.42;;;;;;;8.55;67.75;101078.91;4931951;28;100378;-69
2020/12/16 02:08:42;;;;;;;16.02;13.60;;;;;;;8.52;68.23;101079.00;4944218;28;97468;-69
2020/12/16 02:11:12;;;;;;;18.30;14.88;;;;;;;8.57;67.89;101081.44;4944896;28;99280;-69
2020/12/16 02:13:44;;;;;;;16.30;14.60;;;;;;;8.60;67.83;101076.19;4944309;28;100262;-69
2020/12/16 02:16:11;;;;;;;21.45;16.08;;;;;;;8.54;67.65;101084.16;4963001;28;99618;-68
2020/12/16 02:18:37;;;;;;;19.42;15.73;;;;;;;8.49;68.40;101084.28;4957233;28;97450;-68
2020/12/16 02:21:13;;;;;;;18.02;14.90;;;;;;;8.53;68.40;101079.84;4953973;28;97427;-69
2020/12/16 02:23:47;;;;;;;18.33;15.82;;;;;;;8.59;67.80;101075.31;4935164;28;99908;-69
2020/12/16 02:26:15;;;;;;;19.50;14.80;;;;;;;8.54;68.20;101084.16;4955409;28;98608;-68
2020/12/16 02:28:50;;;;;;;19.33;15.25;;;;;;;8.55;68.67;101093.66;4954619;28;97871;-69
2020/12/16 02:31:17;;;;;;;17.88;13.55;;;;;;;8.54;68.33;101094.53;4947483;28;96692;-68
2020/12/16 02:34:04;;;;;;;18.75;15.25;;;;;;;8.56;68.32;101090.16;4939637;28;98067;-69
2020/12/16 02:36:35;;;;;;;22.27;14.50;;;;;;;8.53;68.33;101088.50;4965029;28;99713;-69
2020/12/16 02:39:08;;;;;;;19.37;15.33;;;;;;;8.54;68.47;101100.59;4950215;28;97483;-69
2020/12/16 02:41:48;;;;;;;19.00;14.88;;;;;;;8.56;68.41;101096.19;4962943;28;96719;-70
2020/12/16 02:44:15;;;;;;;16.95;14.13;;;;;;;8.52;68.76;101099.78;4932446;28;100571;-69
2020/12/16 02:46:55;;;;;;;18.45;14.27;;;;;;;8.59;68.08;101097.88;4948748;28;99902;-68
2020/12/16 02:49:21;;;;;;;17.48;13.98;;;;;;;8.64;66.93;101094.25;4952040;28;98609;-68
2020/12/16 02:51:48;;;;;;;17.48;13.23;;;;;;;8.68;66.82;101096.72;4965305;28;97766;-68
2020/12/16 02:54:14;;;;;;;14.40;11.50;;;;;;;8.71;66.80;101102.72;4930675;28;98494;-69
2020/12/16 02:56:50;;;;;;;15.93;12.15;;;;;;;8.66;66.40;101095.03;4965882;28;100236;-68
2020/12/16 02:59:20;;;;;;;15.57;12.45;;;;;;;8.73;65.94;101093.09;4965578;28;99756;-67
2020/12/16 03:01:52;;;;;;;15.55;13.05;;;;;;;8.70;65.70;101094.97;4921143;28;100222;-69
2020/12/16 03:04:36;;;;;;;13.98;12.20;;;;;;;8.75;66.12;101098.28;4963863;28;100664;-69
2020/12/16 03:07:16;;;;;;;14.77;12.70;;;;;;;8.76;66.18;101106.03;4948897;28;100293;-68
2020/12/16 03:09:43;;;;;;;15.60;12.73;;;;;;;8.80;65.85;101104.19;4959864;28;96751;-69
2020/12/16 03:12:09;;;;;;;15.00;13.23;;;;;;;8.78;65.99;101106.81;4946019;28;96667;-70
2020/12/16 03:14:50;;;;;;;16.35;12.95;;;;;;;8.74;67.03;101107.84;4950957;28;100636;-70
2020/12/16 03:17:17;;;;;;;18.35;15.23;;;;;;;8.64;67.08;101106.38;4960708;28;100015;-69
2020/12/16 03:19:48;;;;;;;27.40;20.52;;;;;;;8.70;66.18;101105.38;4959689;28;97786;-69
2020/12/16 03:22:16;;;;;;;16.35;12.90;;;;;;;8.67;68.55;101108.88;4961728;28;98074;-69
2020/12/16 03:24:58;;;;;;;13.85;11.00;;;;;;;8.65;67.26;101103.75;4946127;28;99342;-69
2020/12/16 03:27:47;;;;;;;13.75;11.75;;;;;;;8.64;66.15;101101.19;4955305;28;97369;-69
2020/12/16 03:30:26;;;;;;;39.17;12.57;;;;;;;8.66;65.72;101104.59;4951206;28;97332;-69
2020/12/16 03:33:13;;;;;;;11.57;10.38;;;;;;;8.69;66.51;101101.06;4945665;28;100174;-70
2020/12/16 03:35:47;;;;;;;15.88;11.80;;;;;;;8.63;67.49;101107.28;4949231;28;98516;-69
2020/12/16 03:38:16;;;;;;;13.68;11.40;;;;;;;8.64;67.97;101101.19;4950590;28;100090;-68
2020/12/16 03:40:46;;;;;;;13.00;11.43;;;;;;;8.62;68.06;101095.16;4963846;28;98041;-68
2020/12/16 03:43:13;;;;;;;13.77;11.57;;;;;;;8.56;68.21;101095.34;4960588;28;98529;-68
2020/12/16 03:45:39;;;;;;;11.65;10.45;;;;;;;8.55;67.89;101089.28;4965060;28;98630;-68
2020/12/16 03:48:05;;;;;;;13.98;10.05;;;;;;;8.62;67.86;101082.16;4964421;28;97499;-68
2020/12/16 03:50:34;;;;;;;14.80;10.15;;;;;;;8.37;68.89;101085.47;4963042;28;98960;-68
2020/12/16 03:53:01;;;;;;;13.40;11.00;;;;;;;8.39;69.12;101086.28;4939663;28;99286;-68
2020/12/16 03:55:39;;;;;;;16.58;10.35;;;;;;;8.36;69.98;101090.69;4963494;28;98312;-67
2020/12/16 03:58:28;;;;;;;12.57;10.32;;;;;;;8.42;69.76;101098.34;4961078;28;100526;-68
2020/12/16 04:01:14;;;;;;;12.25;10.70;;;;;;;8.43;69.71;101100.03;4962514;28;100223;-68
2020/12/16 04:03:45;;;;;;;11.52;10.23;;;;;;;8.53;69.18;101096.28;4961529;28;96740;-67
2020/12/16 04:06:22;;;;;;;15.90;10.60;;;;;;;8.39;69.31;101106.22;4967121;28;98613;-68
2020/12/16 04:08:50;;;;;;;14.73;10.80;;;;;;;8.37;69.71;101106.25;4919166;28;99580;-67
2020/12/16 04:11:37;;;;;;;12.85;11.10;;;;;;;8.53;69.14;101093.69;4964225;28;97476;-68
2020/12/16 04:14:14;;;;;;;19.23;11.98;;;;;;;8.53;69.33;101092.84;4949609;28;96825;-68
2020/12/16 04:16:41;;;;;;;15.38;11.65;;;;;;;8.55;69.35;101096.25;4961252;28;99944;-68
2020/12/16 04:19:12;;;;;;;12.27;10.25;;;;;;;8.61;69.01;101101.25;4948356;28;99801;-67
2020/12/16 04:21:42;;;;;;;11.70;10.38;;;;;;;8.58;69.13;101098.78;4953780;28;97548;-69
2020/12/16 04:24:12;;;;;;;12.65;9.80;;;;;;;8.43;69.93;101107.84;4949230;28;97447;-69
2020/12/16 04:26:56;;;;;;;14.33;10.40;;;;;;;8.53;68.90;101126.63;4966039;28;99924;-69
2020/12/16 04:29:25;;;;;;;11.07;9.88;;;;;;;8.49;69.49;101141.44;4943241;28;99817;-68
2020/12/16 04:31:52;;;;;;;12.95;10.85;;;;;;;8.50;69.19;101147.50;4945056;28;97770;-69
2020/12/16 04:34:25;;;;;;;11.43;9.38;;;;;;;8.52;68.50;101156.09;4949286;28;96998;-69
2020/12/16 04:36:52;;;;;;;14.55;10.93;;;;;;;8.48;68.90;101167.47;4949272;28;100277;-68
2020/12/16 04:39:21;;;;;;;16.88;11.65;;;;;;;8.50;68.49;101165.69;4953677;28;100207;-69
2020/12/16 04:41:51;;;;;;;16.75;12.73;;;;;;;8.55;68.35;101172.47;4950510;28;97126;-69
2020/12/16 04:44:18;;;;;;;17.77;11.65;;;;;;;8.38;69.05;101175.50;4957391;28;96552;-69
2020/12/16 04:46:51;;;;;;;19.45;12.07;;;;;;;8.41;68.83;101174.56;4955683;28;100336;-68
2020/12/16 04:49:26;;;;;;;;;;;;;;;8.45;69.20;101175.34;4927274;28;99610;-69
2020/12/16 04:51:54;;;;;;;15.55;12.15;;;;;;;8.45;68.80;101175.34;4956489;28;96569;-68
2020/12/16 04:54:34;;;;;;;18.52;14.00;;;;;;;8.39;69.02;101176.34;4925299;28;96798;-69
2020/12/16 04:57:06;;;;;;;17.65;13.65;;;;;;;8.35;69.16;101172.94;4956542;28;99541;-68
2020/12/16 04:59:38;;;;;;;17.00;14.10;;;;;;;8.43;68.75;101165.00;4935749;28;99980;-67
2020/12/16 05:02:16;;;;;;;17.23;12.98;;;;;;;8.43;68.29;101166.75;4956971;28;96586;-67
2020/12/16 05:05:09;;;;;;;15.90;13.32;;;;;;;8.45;68.19;101159.75;4957981;28;96756;-67
2020/12/16 05:07:35;;;;;;;16.92;12.20;;;;;;;8.44;68.62;101148.50;4974067;28;97644;-67
2020/12/16 05:10:03;;;;;;;15.65;12.77;;;;;;;8.49;68.02;101145.78;4973772;28;98419;-68
2020/12/16 05:12:30;;;;;;;13.73;12.10;;;;;;;8.46;67.99;101145.84;4973782;28;97430;-68
2020/12/16 05:14:56;;;;;;;13.45;11.25;;;;;;;8.48;67.98;101139.75;4973293;28;96650;-68
2020/12/16 05:17:22;;;;;;;17.42;12.65;;;;;;;8.47;68.13;101147.56;4973669;28;98635;-68
2020/12/16 05:20:09;;;;;;;13.30;11.77;;;;;;;8.45;67.88;101152.81;4973417;28;98318;-68
2020/12/16 05:22:35;;;;;;;16.15;13.00;;;;;;;8.37;68.16;101153.03;4974183;28;96554;-68
2020/12/16 05:25:02;;;;;;;14.80;13.00;;;;;;;8.37;68.04;101141.78;4972919;28;97077;-69
2020/12/16 05:27:30;;;;;;;15.88;12.80;;;;;;;8.34;68.11;101152.22;4968001;28;98541;-69
2020/12/16 05:30:06;;;;;;;13.43;12.05;;;;;;;8.40;68.00;101147.72;4963810;28;100810;-69
2020/12/16 05:32:36;;;;;;;19.25;14.85;;;;;;;8.41;67.71;101148.56;4964706;28;97064;-69
2020/12/16 05:35:24;;;;;;;15.00;13.38;;;;;;;8.36;67.99;101150.44;4962692;28;98980;-67
2020/12/16 05:37:51;;;;;;;17.20;12.73;;;;;;;8.39;68.17;101140.84;4948688;28;98526;-68
2020/12/16 05:40:20;;;;;;;14.93;13.38;;;;;;;8.35;68.49;101153.91;4962254;28;98685;-68
2020/12/16 05:42:48;;;;;;;14.70;12.85;;;;;;;8.36;68.62;101153.91;4961752;28;98158;-68
2020/12/16 05:45:19;;;;;;;17.92;13.85;;;;;;;8.35;68.15;101157.34;4961866;28;97420;-68
2020/12/16 05:47:57;;;;;;;14.70;13.02;;;;;;;8.39;67.84;101160.75;4958909;28;98566;-69
2020/12/16 05:50:23;;;;;;;13.82;11.88;;;;;;;8.37;67.55;101162.56;4963512;28;98801;-70
2020/12/16 05:52:49;;;;;;;15.23;10.13;;;;;;;8.38;67.33;101165.13;4972986;28;96732;-70
2020/12/16 05:55:28;;;;;;;12.60;10.65;;;;;;;8.28;67.85;101158.41;4974306;28;96647;-71
2020/12/16 05:58:07;;;;;;;11.80;9.75;;;;;;;8.38;67.25;101164.25;4971977;28;98451;-71
2020/12/16 06:01:02;;;;;;;13.20;11.00;;;;;;;8.44;67.42;101173.66;4970576;28;98475;-71
2020/12/16 06:03:29;;;;;;;12.15;10.68;;;;;;;8.48;67.06;101168.31;4967922;28;97297;-71
2020/12/16 06:05:56;;;;;;;11.50;10.30;;;;;;;8.42;67.26;101171.09;4972262;28;96680;-73
2020/12/16 06:08:23;;;;;;;11.00;9.95;;;;;;;8.40;67.57;101172.84;4972815;28;98513;-73
2020/12/16 06:10:50;;;;;;;13.57;11.45;;;;;;;8.46;67.73;101171.84;4972028;28;98590;-72
2020/12/16 06:13:17;;;;;;;11.18;9.70;;;;;;;8.51;66.97;101180.38;4972506;28;96914;-72
2020/12/16 06:15:47;;;;;;;15.05;11.77;;;;;;;8.53;67.04;101168.22;4973339;28;97055;-69
2020/12/16 06:18:15;;;;;;;11.98;10.35;;;;;;;8.52;67.44;101171.69;4970240;28;98595;-66
2020/12/16 06:20:42;;;;;;;13.57;10.95;;;;;;;8.50;67.08;101174.31;4972724;28;98553;-68
2020/12/16 06:23:25;;;;;;;13.15;11.55;;;;;;;8.53;66.11;101170.81;4970264;28;96580;-68
2020/12/16 06:26:10;;;;;;;12.68;11.38;;;;;;;8.56;66.74;101166.34;4957433;28;96708;-69
2020/12/16 06:28:36;;;;;;;12.75;11.45;;;;;;;8.58;66.55;101168.94;4968082;28;98565;-68
2020/12/16 06:31:08;;;;;;;14.43;12.10;;;;;;;8.62;66.25;101171.38;4951467;28;98603;-69
2020/12/16 06:33:50;;;;;;;16.23;12.55;;;;;;;8.50;67.51;101179.53;4972373;28;96688;-68
2020/12/16 06:36:17;;;;;;;12.98;11.65;;;;;;;8.52;67.63;101180.34;4965631;28;97442;-69
2020/12/16 06:38:47;;;;;;;14.32;12.48;;;;;;;8.57;67.91;101188.00;4972375;28;98649;-70
2020/12/16 06:41:25;;;;;;;13.27;11.98;;;;;;;8.50;68.52;101187.31;4972004;28;98466;-69
2020/12/16 06:43:55;;;;;;;16.23;13.18;;;;;;;8.40;69.57;101186.69;4972487;28;96539;-69
2020/12/16 06:46:34;;;;;;;15.82;12.40;;;;;;;8.26;70.89;101186.19;4972806;28;96568;-69
2020/12/16 06:49:04;;;;;;;17.00;13.20;;;;;;;8.24;71.35;101193.16;4972819;28;98669;-69
2020/12/16 06:51:45;;;;;;;14.40;12.80;;;;;;;8.11;71.55;101186.56;4972215;28;98526;-68
2020/12/16 06:54:16;;;;;;;15.30;12.10;;;;;;;8.23;71.34;101207.03;4953825;28;97239;-69
2020/12/16 06:56:43;;;;;;;13.68;11.77;;;;;;;8.27;70.65;101206.06;4973094;28;96601;-68
2020/12/16 06:59:13;;;;;;;17.00;12.13;;;;;;;8.33;70.29;101207.66;4972406;28;98438;-68
2020/12/16 07:01:40;;;;;;;14.05;12.55;;;;;;;8.35;71.09;101206.72;4972227;28;98566;-69
2020/12/16 07:04:11;;;;;;;16.52;13.82;;;;;;;8.36;71.18;101218.00;4954752;28;96577;-69
2020/12/16 07:06:40;;;;;;;13.90;12.38;;;;;;;8.34;71.19;101217.16;4973659;28;97370;-69
2020/12/16 07:09:24;;;;;;;14.70;13.15;;;;;;;8.30;71.63;101231.97;4973735;28;98540;-68
2020/12/16 07:11:51;;;;;;;18.80;14.82;;;;;;;8.20;71.48;101227.03;4974476;28;98543;-68
2020/12/16 07:14:27;;;;;;;14.48;12.93;;;;;;;8.25;71.26;101233.81;4972871;28;97350;-68
2020/12/16 07:17:12;;;;;;;17.38;15.25;;;;;;;8.31;70.57;101231.09;4957577;28;96791;-69
2020/12/16 07:19:39;;;;;;;17.05;12.65;;;;;;;8.30;70.62;101239.75;4974968;28;98585;-69
2020/12/16 07:22:20;;;;;;;19.60;14.30;;;;;;;8.34;70.41;101243.97;4973870;28;99575;-69
2020/12/16 07:24:47;;;;;;;23.63;13.88;;;;;;;8.45;69.44;101245.50;4961661;28;99564;-68
2020/12/16 07:27:19;;;;;;;20.60;14.93;;;;;;;8.48;69.53;101248.03;4965638;28;99595;-69
2020/12/16 07:29:58;;;;;;;21.63;14.25;;;;;;;8.36;69.62;101250.06;4964024;28;98485;-69
2020/12/16 07:32:25;;;;;;;18.13;14.02;;;;;;;8.35;69.93;101252.63;4947768;28;98499;-69
2020/12/16 07:34:56;;;;;;;20.40;14.38;;;;;;;8.38;69.99;101244.81;4963181;28;96788;-68
2020/12/16 07:37:30;;;;;;;19.35;14.88;;;;;;;8.43;69.96;101244.69;4962997;28;96880;-69
2020/12/16 07:39:59;;;;;;;22.27;16.30;;;;;;;8.43;69.63;101250.75;4961767;28;98687;-69
2020/12/16 07:42:29;;;;;;;19.02;15.45;;;;;;;8.41;70.29;101249.91;4959699;28;98547;-68
2020/12/16 07:45:00;;;;;;;18.65;15.18;;;;;;;8.49;69.95;101250.59;4962465;28;97380;-67
2020/12/16 07:47:27;;;;;;;17.83;15.93;;;;;;;8.55;70.05;101249.56;4965211;28;98331;-68
2020/12/16 07:49:54;;;;;;;17.02;14.48;;;;;;;8.58;69.91;101254.72;4950184;28;98616;-68
2020/12/16 07:52:27;;;;;;;18.38;15.18;;;;;;;8.51;70.47;101247.94;4965564;28;99212;-68
2020/12/16 07:54:54;;;;;;;20.77;15.00;;;;;;;8.43;70.69;101249.88;4960237;28;98102;-68
2020/12/16 07:57:31;;;;;;;21.23;16.50;;;;;;;8.50;70.46;101246.22;4963177;28;97443;-68
2020/12/16 07:59:57;;;;;;;19.67;15.90;;;;;;;8.52;70.62;101255.72;4963823;28;98528;-69
2020/12/16 08:02:24;;;;;;;33.13;18.23;;;;;;;8.61;70.58;101259.81;4960734;28;97644;-68
2020/12/16 08:04:58;;;;;;;21.13;17.63;;;;;;;8.70;70.13;101261.31;4962050;28;97510;-68
2020/12/16 08:07:25;;;;;;;21.23;15.27;;;;;;;8.69;70.63;101268.28;4963301;28;96758;-69
2020/12/16 08:10:05;;;;;;;20.15;16.08;;;;;;;8.72;70.48;101280.31;4962540;28;98665;-68
2020/12/16 08:12:33;;;;;;;22.73;16.48;;;;;;;8.83;70.37;101286.09;4961870;28;97961;-68
2020/12/16 08:15:07;;;;;;;22.88;17.55;;;;;;;8.86;70.04;101284.28;4958863;28;96823;-69
2020/12/16 08:17:40;;;;;;;;;;;;;;;8.93;69.18;101293.63;4963153;28;99038;-68
2020/12/16 08:20:10;;;;;;;21.17;17.85;;;;;;;8.93;69.14;101285.81;4962341;28;98163;-68
2020/12/16 08:22:37;;;;;;;19.65;17.35;;;;;;;8.90;68.78;101280.72;4961166;28;98406;-69
2020/12/16 08:25:12;;;;;;;28.95;20.42;;;;;;;9.00;69.39;101283.94;4960488;28;97700;-70
2020/12/16 08:27:46;;;;;;;23.40;19.48;;;;;;;9.00;69.59;101280.44;4949866;28;96736;-70
2020/12/16 08:30:25;;;;;;;22.85;20.42;;;;;;;9.05;69.57;101282.03;4962368;28;98678;-70
2020/12/16 08:33:09;;;;;;;22.85;20.10;;;;;;;9.09;69.68;101293.22;4955803;28;98450;-69
2020/12/16 08:35:50;;;;;;;23.30;20.77;;;;;;;9.04;69.16;101295.06;4959951;28;96771;-70
2020/12/16 08:38:36;;;;;;;28.13;21.95;;;;;;;9.10;69.06;101297.50;4963575;28;97888;-69
2020/12/16 08:41:04;;;;;;;24.58;19.90;;;;;;;9.10;69.13;101297.50;4964524;28;98475;-68
2020/12/16 08:43:32;;;;;;;25.27;21.88;;;;;;;9.14;69.07;101299.13;4964124;28;98700;-69
2020/12/16 08:46:11;;;;;;;24.20;21.27;;;;;;;9.14;68.78;101304.34;4958782;28;97256;-69
2020/12/16 08:48:47;;;;;;;26.02;20.52;;;;;;;9.18;68.39;101303.38;4963813;28;97638;-69
2020/12/16 08:51:22;;;;;;;27.92;21.80;;;;;;;9.16;68.93;101310.34;4960904;28;97461;-69
2020/12/16 08:53:54;;;;;;;35.47;25.90;;;;;;;9.11;68.69;101312.25;4960021;28;98603;-69
2020/12/16 08:56:24;;;;;;;44.78;25.85;;;;;;;9.19;68.17;101311.13;4959371;28;98626;-69
2020/12/16 08:59:14;;;;;;;29.63;23.02;;;;;;;9.13;68.31;101311.28;4957410;28;97665;-69
2020/12/16 09:01:42;;;;;;;27.63;23.55;;;;;;;9.17;67.79;101318.13;4961007;28;98569;-69
2020/12/16 09:04:10;;;;;;;27.85;22.80;;;;;;;9.16;67.87;101315.53;4963692;28;99686;-69
2020/12/16 09:06:36;;;;;;;28.25;23.65;;;;;;;9.20;68.00;101317.19;4962605;28;97683;-69
2020/12/16 09:09:15;;;;;;;25.02;21.20;;;;;;;9.28;67.60;101317.84;4958935;28;97623;-69
2020/12/16 09:11:48;;;;;;;26.20;22.00;;;;;;;9.34;66.95;101315.06;4963150;28;101008;-69
2020/12/16 09:14:15;;;;;;;28.60;22.77;;;;;;;9.37;67.55;101319.31;4961271;28;98851;-69
2020/12/16 09:16:42;;;;;;;23.55;21.00;;;;;;;9.47;67.51;101320.75;4959349;28;101139;-69
2020/12/16 09:19:17;;;;;;;27.55;21.80;;;;;;;9.48;67.19;101321.59;4959046;28;97781;-69
2020/12/16 09:21:43;;;;;;;25.52;21.05;;;;;;;9.44;67.30;101321.72;4959449;28;98783;-70
2020/12/16 09:24:09;;;;;;;27.00;21.52;;;;;;;9.51;66.61;101316.34;4957550;28;99406;-69
2020/12/16 09:26:43;;;;;;;29.20;24.52;;;;;;;9.52;66.46;101318.03;4962114;28;99746;-69
2020/12/16 09:29:19;;;;;;;31.40;24.00;;;;;;;9.54;66.29;101311.91;4960537;28;97318;-68
2020/12/16 09:31:46;;;;;;;30.02;22.40;;;;;;;9.59;65.97;101320.44;4943648;28;98689;-69
2020/12/16 09:34:13;;;;;;;30.70;23.00;;;;;;;9.62;65.87;101320.31;4959097;28;98734;-69
2020/12/16 09:36:39;;;;;;;28.67;22.98;;;;;;;9.57;66.69;101313.56;4960891;28;97786;-69
2020/12/16 09:39:06;;;;;;;26.25;21.90;;;;;;;9.60;65.62;101309.13;4961067;28;97619;-69
2020/12/16 09:41:51;;;;;;;28.60;20.67;;;;;;;9.69;66.04;101321.88;4960366;28;98591;-69
2020/12/16 09:44:24;;;;;;;25.95;20.98;;;;;;;9.65;65.73;101328.06;4963295;28;98305;-69
2020/12/16 09:46:51;;;;;;;24.55;21.77;;;;;;;9.74;65.17;101319.09;4964536;28;97445;-69
2020/12/16 09:49:19;;;;;;;26.88;19.77;;;;;;;9.77;65.48;101318.19;4960669;28;99929;-69
2020/12/16 09:51:45;;;;;;;25.42;20.88;;;;;;;9.73;65.79;101321.75;4957371;28;98432;-69
2020/12/16 09:54:32;;;;;;;23.80;20.10;;;;;;;9.71;65.72;101324.44;4962637;28;98636;-69
2020/12/16 09:57:06;;;;;;;26.75;21.13;;;;;;;9.68;65.68;101314.09;4963811;28;97258;-69
2020/12/16 09:59:32;;;;;;;29.10;21.25;;;;;;;9.64;65.39;101315.06;4961083;28;97579;-69
2020/12/16 10:01:58;;;;;;;26.00;21.52;;;;;;;9.68;65.34;101314.09;4959475;28;98638;-71
2020/12/16 10:04:25;;;;;;;24.25;20.17;;;;;;;9.62;64.95;101309.91;4965810;28;99902;-69
2020/12/16 10:06:52;;;;;;;23.73;19.02;;;;;;;9.71;65.43;101316.63;4947410;28;96697;-69
2020/12/16 10:09:18;;;;;;;25.00;22.00;;;;;;;9.61;65.18;101308.22;4960344;28;96896;-69
2020/12/16 10:11:48;;;;;;;27.15;23.98;;;;;;;9.63;65.64;101300.34;4945422;28;98713;-69
2020/12/16 10:14:17;;;;;;;27.35;21.92;;;;;;;9.67;65.21;101296.75;4942428;28;98599;-69
2020/12/16 10:16:45;;;;;;;28.45;24.35;;;;;;;9.71;65.25;101293.19;4942651;28;97260;-69
2020/12/16 10:19:12;;;;;;;26.60;22.48;;;;;;;9.71;65.49;101293.19;4959714;28;97030;-68
2020/12/16 10:21:40;;;;;;;26.08;21.48;;;;;;;9.75;65.33;101305.22;4962207;28;98561;-69
2020/12/16 10:24:06;;;;;;;27.50;22.75;;;;;;;9.74;65.44;101298.28;4959344;28;98952;-68
2020/12/16 10:26:33;;;;;;;25.30;21.88;;;;;;;9.72;65.17;101297.47;4961802;28;96786;-68
2020/12/16 10:28:59;;;;;;;27.08;22.50;;;;;;;9.79;65.55;101299.00;4963904;28;99317;-68
2020/12/16 10:31:26;;;;;;;24.60;21.83;;;;;;;9.81;65.52;101294.63;4959557;28;98430;-68
2020/12/16 10:33:52;;;;;;;30.98;23.05;;;;;;;9.85;65.36;101301.41;4956748;28;100146;-69
2020/12/16 10:36:18;;;;;;;29.60;24.90;;;;;;;9.90;65.34;101299.53;4961331;28;99587;-69
2020/12/16 10:38:44;;;;;;;25.98;21.35;;;;;;;9.87;66.25;101299.63;4963460;28;96709;-69
2020/12/16 10:41:12;;;;;;;27.63;24.33;;;;;;;9.96;65.92;101285.50;4961431;28;101901;-69
2020/12/16 10:43:38;;;;;;;32.95;25.55;;;;;;;9.96;65.90;101275.91;4965248;28;99993;-69
2020/12/16 10:46:09;;;;;;;28.38;23.65;;;;;;;9.90;65.01;101277.84;4965403;28;96732;-67
2020/12/16 10:48:35;;;;;;;27.77;23.40;;;;;;;9.93;65.31;101282.97;4967012;28;98769;-68
2020/12/16 10:51:02;;;;;;;29.88;25.25;;;;;;;9.98;65.16;101283.69;4962682;28;98407;-69
2020/12/16 10:53:29;;;;;;;29.77;24.63;;;;;;;9.97;64.89;101280.22;4965194;28;99388;-70
2020/12/16 10:55:56;;;;;;;31.08;25.88;;;;;;;9.97;65.07;101284.59;4965906;28;99532;-70
2020/12/16 10:58:23;;;;;;;29.73;25.83;;;;;;;10.02;65.19;101281.84;4964591;28;99280;-69
2020/12/16 11:00:49;;;;;;;28.58;24.50;;;;;;;10.07;64.70;101279.94;4964189;28;98463;-70
2020/12/16 11:03:16;;;;;;;30.58;24.23;;;;;;;10.09;64.88;101268.56;4966442;28;99982;-70
2020/12/16 11:05:42;;;;;;;27.63;22.20;;;;;;;10.15;64.68;101267.50;4963104;28;98105;-68
2020/12/16 11:08:08;;;;;;;31.02;25.98;;;;;;;10.22;64.23;101266.41;4963623;28;97374;-68
2020/12/16 11:10:35;;;;;;;32.22;25.85;;;;;;;10.25;64.63;101268.94;4961052;28;99876;-70
2020/12/16 11:13:02;;;;;;;36.67;28.80;;;;;;;10.02;64.03;101271.41;4962504;28;98602;-70
2020/12/16 11:15:29;;;;;;;40.25;33.65;;;;;;;10.09;64.51;101265.94;4963599;28;97506;-70
2020/12/16 11:17:55;;;;;;;30.27;26.70;;;;;;;10.13;64.36;101259.75;4962773;28;98108;-70
2020/12/16 11:20:22;;;;;;;29.65;24.08;;;;;;;10.28;64.57;101253.22;4972629;28;98696;-69
2020/12/16 11:22:48;;;;;;;30.92;25.42;;;;;;;10.37;63.66;101260.72;4970924;28;98499;-69
2020/12/16 11:25:15;;;;;;;32.33;25.45;;;;;;;10.37;63.96;101263.34;4961280;28;96928;-69
2020/12/16 11:27:41;;;;;;;26.20;20.83;;;;;;;10.35;63.54;101264.31;4963112;28;96920;-69
2020/12/16 11:30:07;;;;;;;24.23;21.38;;;;;;;10.34;62.87;101257.38;4962291;28;98419;-68
2020/12/16 11:32:34;;;;;;;24.40;20.63;;;;;;;10.30;62.98;101254.03;4962707;28;98439;-69
2020/12/16 11:35:00;;;;;;;26.83;20.92;;;;;;;10.30;62.94;101246.19;4965550;28;97006;-69